createdAt,value
2022-10-19T00:00:16.031Z,101543.56
2022-10-19T00:03:07.561Z,101545.45
2022-10-19T00:05:40.088Z,101550.30
2022-10-19T00:08:11.652Z,101549.34
2022-10-19T00:10:47.028Z,101546.05
2022-10-19T00:13:18.596Z,101544.34
2022-10-19T00:15:50.235Z,101552.54
2022-10-19T00:18:21.858Z,101555.05
2022-10-19T00:20:55.026Z,101552.20
2022-10-19T00:23:26.579Z,101543.73
2022-10-19T00:25:59.450Z,101545.23
2022-10-19T00:28:31.595Z,101551.63
2022-10-19T00:31:10.451Z,101557.95
2022-10-19T00:33:43.105Z,101559.48
2022-10-19T00:36:21.575Z,101553.79
2022-10-19T00:38:54.052Z,101551.77
2022-10-19T00:41:35.560Z,101554.52
2022-10-19T00:44:16.397Z,101558.52
2022-10-19T00:46:49.677Z,101556.48
2022-10-19T00:49:25.014Z,101548.29
2022-10-19T00:52:01.896Z,101548.67
2022-10-19T00:54:43.393Z,101545.98
2022-10-19T00:57:15.911Z,101544.16
2022-10-19T00:59:48.676Z,101541.39
2022-10-19T01:02:21.927Z,101538.95
2022-10-19T01:04:54.844Z,101541.83
2022-10-19T01:07:27.878Z,101546.61
2022-10-19T01:10:00.420Z,101545.71
2022-10-19T01:12:50.345Z,101546.67
2022-10-19T01:15:32.269Z,101545.59
2022-10-19T01:18:14.395Z,101546.55
2022-10-19T01:21:16.429Z,101549.08
2022-10-19T01:24:27.136Z,101544.79
2022-10-19T01:27:36.532Z,101539.23
2022-10-19T01:30:24.241Z,101544.48
2022-10-19T01:33:04.097Z,101539.65
2022-10-19T01:35:46.447Z,101544.11
2022-10-19T01:38:30.766Z,101544.15
2022-10-19T01:41:14.928Z,101542.34
2022-10-19T01:43:53.116Z,101542.39
2022-10-19T01:46:30.352Z,101544.64
2022-10-19T01:49:07.119Z,101543.09
2022-10-19T01:51:46.582Z,101539.89
2022-10-19T01:54:20.713Z,101535.36
2022-10-19T01:56:55.199Z,101529.73
2022-10-19T01:59:27.441Z,101524.30
2022-10-19T02:02:03.220Z,101526.05
2022-10-19T02:04:36.819Z,101525.72
2022-10-19T02:07:09.385Z,101523.25
2022-10-19T02:09:40.947Z,101524.57
2022-10-19T02:12:16.920Z,101515.71
2022-10-19T02:14:52.075Z,101511.57
2022-10-19T02:17:28.442Z,101522.80
2022-10-19T02:20:01.663Z,101525.96
2022-10-19T02:22:35.446Z,101526.66
2022-10-19T02:25:09.498Z,101524.27
2022-10-19T02:27:42.935Z,101520.69
2022-10-19T02:30:17.667Z,101510.05
2022-10-19T02:32:53.843Z,101505.65
2022-10-19T02:35:25.400Z,101509.34
2022-10-19T02:38:00.084Z,101513.48
2022-10-19T02:40:39.389Z,101513.95
2022-10-19T02:43:17.820Z,101516.61
2022-10-19T02:45:57.308Z,101518.66
2022-10-19T02:48:31.452Z,101517.13
2022-10-19T02:51:03.274Z,101519.29
2022-10-19T02:53:37.987Z,101516.20
2022-10-19T02:56:12.132Z,101514.52
2022-10-19T02:58:44.552Z,101515.21
2022-10-19T03:01:16.163Z,101512.27
2022-10-19T03:03:48.688Z,101516.19
2022-10-19T03:06:20.416Z,101513.66
2022-10-19T03:08:52.046Z,101512.17
2022-10-19T03:11:27.067Z,101514.57
2022-10-19T03:13:59.459Z,101519.10
2022-10-19T03:16:30.987Z,101519.59
2022-10-19T03:19:02.608Z,101516.54
2022-10-19T03:21:34.914Z,101514.33
2022-10-19T03:24:10.647Z,101514.92
2022-10-19T03:26:42.204Z,101516.17
2022-10-19T03:29:13.727Z,101514.44
2022-10-19T03:31:45.337Z,101516.73
2022-10-19T03:34:17.848Z,101516.01
2022-10-19T03:36:49.406Z,101515.02
2022-10-19T03:39:21.028Z,101510.63
2022-10-19T03:41:55.800Z,101512.33
2022-10-19T03:44:28.487Z,101511.66
2022-10-19T03:47:00.152Z,101513.11
2022-10-19T03:49:32.978Z,101513.31
2022-10-19T03:52:06.425Z,101513.95
2022-10-19T03:54:38.094Z,101518.14
2022-10-19T03:57:09.697Z,101521.50
2022-10-19T03:59:41.292Z,101515.63
2022-10-19T04:02:12.860Z,101514.04
2022-10-19T04:04:45.221Z,101517.47
2022-10-19T04:07:16.743Z,101523.77
2022-10-19T04:09:48.338Z,101520.98
2022-10-19T04:12:19.858Z,101520.79
2022-10-19T04:14:56.831Z,101523.16
2022-10-19T04:17:29.474Z,101527.14
2022-10-19T04:20:01.185Z,101529.35
2022-10-19T04:22:32.999Z,101527.79
2022-10-19T04:25:06.608Z,101529.52
2022-10-19T04:27:38.122Z,101525.76
2022-10-19T04:30:18.199Z,101532.72
2022-10-19T04:32:54.189Z,101526.97
2022-10-19T04:35:25.783Z,101532.67
2022-10-19T04:37:57.343Z,101535.73
2022-10-19T04:40:31.578Z,101539.27
2022-10-19T04:43:03.203Z,101535.48
2022-10-19T04:45:36.310Z,101534.53
2022-10-19T04:48:08.307Z,101536.40
2022-10-19T04:50:42.298Z,101538.30
2022-10-19T04:53:13.874Z,101542.38
2022-10-19T04:55:45.644Z,101540.30
2022-10-19T04:58:17.203Z,101539.15
2022-10-19T05:00:50.741Z,101545.25
2022-10-19T05:03:22.419Z,101548.19
2022-10-19T05:05:54.018Z,101542.73
2022-10-19T05:08:25.620Z,101548.05
2022-10-19T05:11:02.859Z,101548.46
2022-10-19T05:13:35.374Z,101548.05
2022-10-19T05:16:08.982Z,101552.93
2022-10-19T05:18:41.470Z,101557.17
2022-10-19T05:21:15.681Z,101555.58
2022-10-19T05:23:47.494Z,101556.85
2022-10-19T05:26:20.932Z,101558.52
2022-10-19T05:28:56.759Z,101559.45
2022-10-19T05:31:32.520Z,101562.48
2022-10-19T05:34:05.078Z,101565.39
2022-10-19T05:36:38.783Z,101570.70
2022-10-19T05:39:14.011Z,101568.71
2022-10-19T05:41:48.878Z,101572.75
2022-10-19T05:44:22.333Z,101575.07
2022-10-19T05:47:00.697Z,101576.88
2022-10-19T05:49:32.611Z,101581.06
2022-10-19T05:52:04.371Z,101583.65
2022-10-19T05:54:39.787Z,101585.52
2022-10-19T05:57:11.608Z,101581.86
2022-10-19T05:59:51.147Z,101579.79
2022-10-19T06:02:36.499Z,101581.75
2022-10-19T06:05:10.833Z,101583.30
2022-10-19T06:07:42.438Z,101581.86
2022-10-19T06:10:14.117Z,101581.08
2022-10-19T06:12:46.447Z,101577.20
2022-10-19T06:15:18.255Z,101575.87
2022-10-19T06:17:49.915Z,101574.65
2022-10-19T06:20:21.959Z,101572.73
2022-10-19T06:22:53.633Z,101577.34
2022-10-19T06:25:25.238Z,101579.83
2022-10-19T06:27:57.295Z,101581.13
2022-10-19T06:30:29.590Z,101583.38
2022-10-19T06:35:35.600Z,101603.45
2022-10-19T06:38:07.895Z,101605.23
2022-10-19T06:40:52.668Z,101607.80
2022-10-19T06:43:39.236Z,101612.87
2022-10-19T06:46:13.103Z,101616.86
2022-10-19T06:48:44.867Z,101617.17
2022-10-19T06:51:16.748Z,101611.19
2022-10-19T06:53:52.892Z,101612.27
2022-10-19T06:56:28.554Z,101616.59
2022-10-19T06:59:00.636Z,101619.64
2022-10-19T07:01:32.704Z,101623.81
2022-10-19T07:04:04.325Z,101629.19
2022-10-19T07:06:35.887Z,101628.55
2022-10-19T07:09:07.600Z,101630.29
2022-10-19T07:11:43.582Z,101631.43
2022-10-19T07:14:17.619Z,101631.50
2022-10-19T07:16:50.561Z,101628.18
2022-10-19T07:19:22.950Z,101625.77
2022-10-19T07:21:55.044Z,101633.28
2022-10-19T07:24:27.392Z,101636.02
2022-10-19T07:26:59.066Z,101639.04
2022-10-19T07:29:33.447Z,101638.69
2022-10-19T07:32:08.925Z,101638.38
2022-10-19T07:34:41.803Z,101636.04
2022-10-19T07:37:13.338Z,101630.86
2022-10-19T07:39:44.931Z,101635.59
2022-10-19T07:42:16.561Z,101641.14
2022-10-19T07:44:49.415Z,101644.17
2022-10-19T07:47:21.067Z,101646.79
2022-10-19T07:49:53.228Z,101648.72
2022-10-19T07:52:24.776Z,101653.69
2022-10-19T07:54:56.461Z,101654.52
2022-10-19T07:57:28.010Z,101651.16
2022-10-19T07:59:59.559Z,101653.30
2022-10-19T08:02:39.606Z,101653.73
2022-10-19T08:05:22.876Z,101652.92
2022-10-19T08:07:54.478Z,101653.88
2022-10-19T08:10:26.413Z,101655.87
2022-10-19T08:12:58.039Z,101654.80
2022-10-19T08:15:33.411Z,101657.41
2022-10-19T08:18:05.091Z,101656.55
2022-10-19T08:20:36.703Z,101661.94
2022-10-19T08:23:08.257Z,101659.98
2022-10-19T08:25:39.879Z,101664.48
2022-10-19T08:28:11.588Z,101666.22
2022-10-19T08:30:43.251Z,101664.09
2022-10-19T08:33:15.372Z,101663.05
2022-10-19T08:35:46.951Z,101661.27
2022-10-19T08:38:18.489Z,101662.95
2022-10-19T08:40:50.125Z,101655.77
2022-10-19T08:43:30.281Z,101654.27
2022-10-19T08:46:11.024Z,101653.54
2022-10-19T08:48:44.043Z,101654.91
2022-10-19T08:51:16.384Z,101657.31
2022-10-19T08:53:54.577Z,101657.94
2022-10-19T08:56:51.454Z,101653.73
2022-10-19T08:59:34.553Z,101657.66
2022-10-19T09:02:17.461Z,101659.67
2022-10-19T09:05:15.138Z,101662.58
2022-10-19T09:07:55.851Z,101663.73
2022-10-19T09:10:30.340Z,101662.00
2022-10-19T09:13:05.119Z,101666.11
2022-10-19T09:15:42.022Z,101669.10
2022-10-19T09:18:21.154Z,101676.84
2022-10-19T09:20:54.334Z,101673.98
2022-10-19T09:23:30.858Z,101675.14
2022-10-19T09:26:02.564Z,101678.52
2022-10-19T09:28:48.349Z,101685.19
2022-10-19T09:31:31.489Z,101690.56
2022-10-19T09:34:07.605Z,101698.80
2022-10-19T09:36:50.937Z,101699.66
2022-10-19T09:39:25.702Z,101703.80
2022-10-19T09:42:05.240Z,101705.23
2022-10-19T09:44:37.169Z,101705.90
2022-10-19T09:47:27.365Z,101713.20
2022-10-19T09:50:20.380Z,101716.21
2022-10-19T09:52:53.783Z,101714.24
2022-10-19T09:55:38.055Z,101713.70
2022-10-19T09:58:21.045Z,101711.30
2022-10-19T10:00:55.284Z,101713.33
2022-10-19T10:03:30.752Z,101714.20
2022-10-19T10:06:05.926Z,101715.59
2022-10-19T10:08:40.616Z,101717.02
2022-10-19T10:11:15.505Z,101719.45
2022-10-19T10:13:51.914Z,101719.29
2022-10-19T10:16:26.653Z,101720.41
2022-10-19T10:19:01.953Z,101721.83
2022-10-19T10:21:37.585Z,101720.70
2022-10-19T10:24:21.907Z,101726.98
2022-10-19T10:26:55.505Z,101727.16
2022-10-19T10:29:29.126Z,101722.55
2022-10-19T10:32:05.678Z,101726.10
2022-10-19T10:34:59.988Z,101721.91
2022-10-19T10:37:39.288Z,101721.92
2022-10-19T10:40:23.610Z,101721.88
2022-10-19T10:42:58.578Z,101716.01
2022-10-19T10:45:35.003Z,101715.95
2022-10-19T10:48:21.573Z,101716.02
2022-10-19T10:50:53.309Z,101719.55
2022-10-19T10:53:47.840Z,101717.13
2022-10-19T10:56:28.269Z,101714.59
2022-10-19T10:59:06.006Z,101709.54
2022-10-19T11:01:41.707Z,101710.63
2022-10-19T11:04:18.694Z,101710.79
2022-10-19T11:06:56.848Z,101712.62
2022-10-19T11:09:36.190Z,101716.23
2022-10-19T11:12:13.659Z,101722.50
2022-10-19T11:14:55.058Z,101719.93
2022-10-19T11:17:30.802Z,101723.09
2022-10-19T11:20:02.409Z,101729.10
2022-10-19T11:22:41.737Z,101727.45
2022-10-19T11:25:30.901Z,101730.07
2022-10-19T11:28:15.291Z,101730.25
2022-10-19T11:30:58.516Z,101726.52
2022-10-19T11:33:45.097Z,101726.06
2022-10-19T11:36:33.293Z,101723.73
2022-10-19T11:39:19.903Z,101724.59
2022-10-19T11:42:01.935Z,101723.78
2022-10-19T11:44:47.151Z,101723.51
2022-10-19T11:47:35.151Z,101723.49
2022-10-19T11:50:19.271Z,101722.61
2022-10-19T11:52:59.683Z,101718.42
2022-10-19T11:55:40.936Z,101715.27
2022-10-19T11:58:34.631Z,101717.68
2022-10-19T12:01:18.333Z,101712.15
2022-10-19T12:04:24.989Z,101715.86
2022-10-19T12:07:05.870Z,101724.84
2022-10-19T12:09:51.413Z,101729.98
2022-10-19T12:12:30.865Z,101736.16
2022-10-19T12:15:20.622Z,101732.27
2022-10-19T12:17:55.009Z,101726.30
2022-10-19T12:20:32.208Z,101729.23
2022-10-19T12:23:12.684Z,101729.39
2022-10-19T12:25:46.724Z,101733.65
2022-10-19T12:28:25.808Z,101731.84
2022-10-19T12:30:59.113Z,101731.88
2022-10-19T12:33:42.622Z,101733.25
2022-10-19T12:36:23.672Z,101727.52
2022-10-19T12:39:00.009Z,101721.52
2022-10-19T12:41:40.959Z,101722.23
2022-10-19T12:44:30.222Z,101720.27
2022-10-19T12:47:10.831Z,101717.02
2022-10-19T12:49:50.441Z,101719.52
2022-10-19T12:52:39.899Z,101713.32
2022-10-19T12:55:34.634Z,101717.61
2022-10-19T12:58:16.572Z,101717.86
2022-10-19T13:01:00.787Z,101718.30
2022-10-19T13:03:35.191Z,101719.76
2022-10-19T13:06:12.801Z,101719.41
2022-10-19T13:08:48.754Z,101722.83
2022-10-19T13:11:21.016Z,101724.23
2022-10-19T13:14:30.405Z,101726.61
2022-10-19T13:17:03.231Z,101719.71
2022-10-19T13:19:35.169Z,101719.69
2022-10-19T13:22:28.712Z,101717.94
2022-10-19T13:25:27.971Z,101715.81
2022-10-19T13:28:03.431Z,101716.52
2022-10-19T13:31:06.201Z,101718.63
2022-10-19T13:33:50.355Z,101720.88
2022-10-19T13:36:24.019Z,101719.91
2022-10-19T13:39:14.287Z,101721.36
2022-10-19T13:41:56.452Z,101724.30
2022-10-19T13:44:31.032Z,101722.66
2022-10-19T13:47:28.597Z,101719.98
2022-10-19T13:50:17.917Z,101725.92
2022-10-19T13:53:27.343Z,101726.77
2022-10-19T13:56:17.704Z,101726.13
2022-10-19T13:59:23.586Z,101726.04
2022-10-19T14:02:20.384Z,101727.91
2022-10-19T14:05:05.308Z,101721.86
2022-10-19T14:07:48.305Z,101724.30
2022-10-19T14:10:25.095Z,101725.13
2022-10-19T14:13:07.965Z,101721.73
2022-10-19T14:15:39.708Z,101727.98
2022-10-19T14:18:26.209Z,101725.10
2022-10-19T14:21:02.591Z,101725.96
2022-10-19T14:23:35.833Z,101726.89
2022-10-19T14:26:15.000Z,101725.38
2022-10-19T14:28:46.729Z,101723.13
2022-10-19T14:31:23.688Z,101725.46
2022-10-19T14:34:05.843Z,101727.08
2022-10-19T14:36:40.576Z,101726.88
2022-10-19T14:39:25.586Z,101727.86
2022-10-19T14:41:59.435Z,101726.17
2022-10-19T14:44:39.755Z,101731.85
2022-10-19T14:47:20.595Z,101727.02
2022-10-19T14:49:52.479Z,101726.91
2022-10-19T14:52:34.257Z,101726.83
2022-10-19T14:55:14.039Z,101728.79
2022-10-19T14:57:52.854Z,101729.55
2022-10-19T15:03:05.833Z,101728.63
2022-10-19T15:05:42.571Z,101732.13
2022-10-19T15:08:21.307Z,101731.16
2022-10-19T15:10:53.283Z,101734.16
2022-10-19T15:13:30.118Z,101733.67
2022-10-19T15:16:02.068Z,101734.28
2022-10-19T15:18:55.664Z,101738.77
2022-10-19T15:21:30.348Z,101742.05
2022-10-19T15:24:22.780Z,101747.32
2022-10-19T15:27:08.784Z,101745.63
2022-10-19T15:29:41.105Z,101746.10
2022-10-19T15:32:24.811Z,101747.88
2022-10-19T15:34:56.728Z,101752.89
2022-10-19T15:37:28.555Z,101755.22
2022-10-19T15:40:10.259Z,101752.03
2022-10-19T15:42:44.539Z,101754.75
2022-10-19T15:45:37.287Z,101758.92
2022-10-19T15:48:30.157Z,101758.17
2022-10-19T15:51:01.891Z,101762.64
2022-10-19T15:53:33.417Z,101765.88
2022-10-19T15:56:05.184Z,101765.41
2022-10-19T15:58:36.928Z,101761.44
2022-10-19T16:01:16.030Z,101759.27
2022-10-19T16:03:47.943Z,101760.10
2022-10-19T16:06:20.652Z,101758.88
2022-10-19T16:08:54.208Z,101764.31
2022-10-19T16:11:26.335Z,101769.16
2022-10-19T16:13:57.977Z,101772.02
2022-10-19T16:16:32.159Z,101777.50
2022-10-19T16:19:05.697Z,101780.25
2022-10-19T16:21:38.993Z,101782.70
2022-10-19T16:24:11.002Z,101781.97
2022-10-19T16:26:43.386Z,101784.90
2022-10-19T16:29:14.920Z,101785.17
2022-10-19T16:31:46.563Z,101788.09
2022-10-19T16:34:18.331Z,101790.00
2022-10-19T16:36:50.227Z,101789.77
2022-10-19T16:39:22.029Z,101798.61
2022-10-19T16:41:53.686Z,101802.94
2022-10-19T16:44:25.697Z,101805.20
2022-10-19T16:46:58.499Z,101808.23
2022-10-19T16:49:30.396Z,101811.63
2022-10-19T16:52:02.243Z,101813.96
2022-10-19T16:54:33.929Z,101815.71
2022-10-19T16:57:09.643Z,101816.73
2022-10-19T16:59:41.655Z,101821.05
2022-10-19T17:02:14.385Z,101821.23
2022-10-19T17:04:45.971Z,101821.61
2022-10-19T17:07:17.998Z,101821.58
2022-10-19T17:09:52.164Z,101823.80
2022-10-19T17:12:26.306Z,101826.38
2022-10-19T17:15:11.533Z,101834.30
2022-10-19T17:17:49.506Z,101835.64
2022-10-19T17:20:21.134Z,101838.02
2022-10-19T17:22:55.278Z,101838.00
2022-10-19T17:25:26.908Z,101839.83
2022-10-19T17:27:58.572Z,101846.23
2022-10-19T17:30:30.221Z,101847.44
2022-10-19T17:33:01.802Z,101847.65
2022-10-19T17:35:34.664Z,101846.73
2022-10-19T17:38:06.259Z,101855.77
2022-10-19T17:40:37.831Z,101857.76
2022-10-19T17:43:11.705Z,101858.70
2022-10-19T17:48:19.761Z,101862.48
2022-10-19T17:51:00.298Z,101865.63
2022-10-19T17:53:33.251Z,101867.48
2022-10-19T17:56:07.667Z,101867.55
2022-10-19T17:58:40.093Z,101875.42
2022-10-19T18:01:13.015Z,101878.95
2022-10-19T18:03:44.942Z,101880.08
2022-10-19T18:06:18.458Z,101880.52
2022-10-19T18:08:53.089Z,101881.54
2022-10-19T18:11:26.194Z,101885.25
2022-10-19T18:14:00.879Z,101883.92
2022-10-19T18:16:35.206Z,101882.03
2022-10-19T18:19:07.657Z,101883.48
2022-10-19T18:21:41.247Z,101881.67
2022-10-19T18:24:16.884Z,101879.35
2022-10-19T18:26:49.528Z,101884.64
2022-10-19T18:29:23.033Z,101883.55
2022-10-19T18:31:55.445Z,101883.14
2022-10-19T18:34:28.503Z,101890.09
2022-10-19T18:37:00.315Z,101884.94
2022-10-19T18:39:32.069Z,101886.36
2022-10-19T18:42:03.803Z,101888.31
2022-10-19T18:44:36.283Z,101889.75
2022-10-19T18:47:07.996Z,101887.70
2022-10-19T18:49:39.778Z,101887.38
2022-10-19T18:52:11.448Z,101888.58
2022-10-19T18:54:42.992Z,101887.10
2022-10-19T18:57:14.580Z,101888.95
2022-10-19T18:59:47.109Z,101891.39
2022-10-19T19:02:22.700Z,101891.02
2022-10-19T19:04:54.833Z,101889.49
2022-10-19T19:07:26.660Z,101887.07
2022-10-19T19:09:58.435Z,101890.52
2022-10-19T19:12:31.192Z,101888.50
2022-10-19T19:15:02.977Z,101889.08
2022-10-19T19:17:34.597Z,101886.64
2022-10-19T19:20:16.708Z,101890.27
2022-10-19T19:22:51.999Z,101892.67
2022-10-19T19:25:23.614Z,101898.86
2022-10-19T19:27:55.224Z,101898.40
2022-10-19T19:30:31.227Z,101895.39
2022-10-19T19:33:03.738Z,101900.10
2022-10-19T19:35:35.315Z,101898.84
2022-10-19T19:38:06.982Z,101901.92
2022-10-19T19:40:43.283Z,101902.28
2022-10-19T19:43:16.046Z,101906.89
2022-10-19T19:46:00.885Z,101908.09
2022-10-19T19:48:34.917Z,101909.95
2022-10-19T19:51:08.521Z,101910.91
2022-10-19T19:53:41.003Z,101912.17
2022-10-19T19:56:14.690Z,101910.36
2022-10-19T19:58:47.531Z,101911.98
2022-10-19T20:01:22.624Z,101912.28
2022-10-19T20:03:54.628Z,101914.56
2022-10-19T20:06:26.319Z,101915.23
2022-10-19T20:08:58.412Z,101918.66
2022-10-19T20:11:31.800Z,101920.17
2022-10-19T20:14:03.388Z,101921.91
2022-10-19T20:16:35.089Z,101923.82
2022-10-19T20:19:09.906Z,101927.89
2022-10-19T20:21:42.006Z,101932.24
2022-10-19T20:24:13.567Z,101929.02
2022-10-19T20:26:45.301Z,101932.02
2022-10-19T20:29:16.957Z,101928.76
2022-10-19T20:31:49.337Z,101933.65
2022-10-19T20:34:21.916Z,101928.47
2022-10-19T20:36:55.589Z,101931.84
2022-10-19T20:39:27.204Z,101932.06
2022-10-19T20:42:00.406Z,101934.84
2022-10-19T20:44:31.948Z,101937.99
2022-10-19T20:47:04.327Z,101939.58
2022-10-19T20:49:35.943Z,101939.44
2022-10-19T20:52:08.009Z,101943.07
2022-10-19T20:54:39.586Z,101949.23
2022-10-19T20:57:11.151Z,101952.59
2022-10-19T20:59:44.054Z,101949.50
2022-10-19T21:02:16.494Z,101954.66
2022-10-19T21:04:48.045Z,101958.51
2022-10-19T21:07:19.550Z,101957.96
2022-10-19T21:09:51.066Z,101958.94
2022-10-19T21:12:24.242Z,101957.29
2022-10-19T21:14:55.794Z,101956.48
2022-10-19T21:17:27.456Z,101959.73
2022-10-19T21:19:58.960Z,101957.80
2022-10-19T21:22:34.479Z,101958.40
2022-10-19T21:25:11.622Z,101960.09
2022-10-19T21:27:43.282Z,101956.81
2022-10-19T21:30:20.391Z,101955.48
2022-10-19T21:32:51.976Z,101957.86
2022-10-19T21:35:23.522Z,101954.79
2022-10-19T21:37:55.111Z,101955.92
2022-10-19T21:40:26.643Z,101959.59
2022-10-19T21:42:58.239Z,101958.35
2022-10-19T21:45:30.791Z,101961.55
2022-10-19T21:48:02.651Z,101961.49
2022-10-19T21:50:34.187Z,101963.11
2022-10-19T21:53:06.551Z,101964.84
2022-10-19T21:55:38.706Z,101960.48
2022-10-19T21:58:10.237Z,101967.77
2022-10-19T22:00:41.868Z,101970.73
2022-10-19T22:03:16.838Z,101971.91
2022-10-19T22:05:56.948Z,101965.55
2022-10-19T22:08:29.463Z,101968.79
2022-10-19T22:11:04.816Z,101966.55
2022-10-19T22:13:37.661Z,101970.48
2022-10-19T22:16:10.850Z,101965.79
2022-10-19T22:18:49.502Z,101967.46
2022-10-19T22:21:23.240Z,101968.96
2022-10-19T22:23:57.428Z,101970.67
2022-10-19T22:26:30.680Z,101974.72
2022-10-19T22:29:03.351Z,101976.71
2022-10-19T22:31:35.518Z,101974.89
2022-10-19T22:34:10.433Z,101972.02
2022-10-19T22:36:42.024Z,101968.79
2022-10-19T22:39:14.584Z,101971.68
2022-10-19T22:41:46.286Z,101966.23
2022-10-19T22:44:18.896Z,101963.39
2022-10-19T22:46:50.616Z,101963.84
2022-10-19T22:49:22.389Z,101971.13
2022-10-19T22:51:54.084Z,101972.81
2022-10-19T22:54:27.503Z,101975.34
2022-10-19T22:56:59.265Z,101974.58
2022-10-19T22:59:31.038Z,101964.39
2022-10-19T23:02:02.899Z,101960.71
2022-10-19T23:04:36.091Z,101959.79
2022-10-19T23:07:07.829Z,101959.06
2022-10-19T23:09:39.889Z,101955.33
2022-10-19T23:12:11.603Z,101955.86
2022-10-19T23:14:45.799Z,101961.08
2022-10-19T23:17:17.869Z,101961.70
2022-10-19T23:19:49.794Z,101960.19
2022-10-19T23:22:21.686Z,101961.04
2022-10-19T23:24:54.298Z,101958.40
2022-10-19T23:27:26.484Z,101959.99
2022-10-19T23:29:59.020Z,101966.21
2022-10-19T23:32:30.817Z,101971.36
2022-10-19T23:35:03.518Z,101968.80
2022-10-19T23:37:36.774Z,101967.64
2022-10-19T23:40:21.511Z,101962.73
2022-10-19T23:42:53.214Z,101964.61
2022-10-19T23:45:25.125Z,101966.23
2022-10-19T23:47:56.871Z,101969.05
2022-10-19T23:50:31.861Z,101963.94
2022-10-19T23:53:03.559Z,101957.40
2022-10-19T23:55:36.133Z,101956.31
2022-10-19T23:58:07.883Z,101955.86
